createdAt,value
2022-09-17T00:00:02.096Z,92.14
2022-09-17T00:01:02.173Z,91.83
2022-09-17T00:02:02.134Z,92.04
2022-09-17T00:03:02.670Z,92.35
2022-09-17T00:04:02.320Z,92.45
2022-09-17T00:05:02.087Z,92.04
2022-09-17T00:06:02.558Z,92.00
2022-09-17T00:07:02.454Z,92.10
2022-09-17T00:08:02.993Z,92.10
2022-09-17T00:09:02.466Z,92.10
2022-09-17T00:10:02.401Z,91.69
2022-09-17T00:11:02.828Z,91.28
2022-09-17T00:12:01.752Z,91.28
2022-09-17T00:13:01.772Z,91.28
2022-09-17T00:14:01.975Z,91.49
2022-09-17T00:15:02.267Z,91.08
2022-09-17T00:16:02.215Z,91.59
2022-09-17T00:17:02.154Z,91.59
2022-09-17T00:18:02.116Z,91.69
2022-09-17T00:19:02.131Z,91.59
2022-09-17T00:20:02.483Z,91.35
2022-09-17T00:21:02.207Z,91.14
2022-09-17T00:22:02.392Z,91.03
2022-09-17T00:23:02.272Z,90.83
2022-09-17T00:24:02.546Z,90.83
2022-09-17T00:25:02.450Z,90.73
2022-09-17T00:26:02.322Z,90.94
2022-09-17T00:27:02.740Z,91.14
2022-09-17T00:28:02.309Z,90.32
2022-09-17T00:29:02.764Z,90.53
2022-09-17T00:30:02.411Z,90.73
2022-09-17T00:31:02.438Z,91.03
2022-09-17T00:32:02.999Z,91.03
2022-09-17T00:33:02.609Z,91.24
2022-09-17T00:34:02.436Z,90.94
2022-09-17T00:35:02.330Z,90.73
2022-09-17T00:36:02.874Z,90.73
2022-09-17T00:37:01.617Z,90.53
2022-09-17T00:38:01.830Z,90.32
2022-09-17T00:39:01.783Z,91.03
2022-09-17T00:40:02.367Z,91.03
2022-09-17T00:41:01.914Z,91.24
2022-09-17T00:42:01.862Z,91.44
2022-09-17T00:43:01.924Z,91.85
2022-09-17T00:44:02.013Z,91.85
2022-09-17T00:45:01.917Z,91.85
2022-09-17T00:46:02.296Z,91.85
2022-09-17T00:47:02.145Z,91.96
2022-09-17T00:48:02.200Z,91.44
2022-09-17T00:49:02.070Z,91.30
2022-09-17T00:50:02.057Z,91.35
2022-09-17T00:51:02.467Z,91.85
2022-09-17T00:52:02.300Z,91.24
2022-09-17T00:53:02.227Z,91.55
2022-09-17T00:54:02.378Z,91.96
2022-09-17T00:55:02.311Z,91.85
2022-09-17T00:56:01.993Z,91.96
2022-09-17T00:57:02.466Z,91.96
2022-09-17T00:58:02.944Z,91.96
2022-09-17T00:59:02.834Z,91.85
2022-09-17T01:00:02.677Z,91.96
2022-09-17T01:01:02.504Z,91.81
2022-09-17T01:02:02.015Z,91.71
2022-09-17T01:03:02.453Z,91.81
2022-09-17T01:04:02.461Z,91.71
2022-09-17T01:05:02.227Z,91.40
2022-09-17T01:06:02.384Z,91.09
2022-09-17T01:07:02.336Z,91.20
2022-09-17T01:08:02.197Z,91.61
2022-09-17T01:09:02.573Z,91.40
2022-09-17T01:10:02.319Z,91.30
2022-09-17T01:11:02.171Z,91.09
2022-09-17T01:12:01.609Z,91.30
2022-09-17T01:13:01.887Z,91.30
2022-09-17T01:14:01.743Z,91.40
2022-09-17T01:15:01.581Z,91.40
2022-09-17T01:16:02.107Z,91.20
2022-09-17T01:17:01.873Z,91.20
2022-09-17T01:18:01.785Z,91.50
2022-09-17T01:19:01.671Z,91.61
2022-09-17T01:20:02.048Z,91.09
2022-09-17T01:21:02.029Z,90.85
2022-09-17T01:22:01.942Z,91.16
2022-09-17T01:23:01.803Z,91.16
2022-09-17T01:24:02.355Z,91.30
2022-09-17T01:25:01.982Z,91.26
2022-09-17T01:26:01.828Z,91.16
2022-09-17T01:27:02.747Z,91.26
2022-09-17T01:28:02.332Z,91.26
2022-09-17T01:29:02.655Z,91.05
2022-09-17T01:30:02.210Z,90.85
2022-09-17T01:31:02.289Z,90.89
2022-09-17T01:32:01.887Z,91.09
2022-09-17T01:33:01.755Z,91.40
2022-09-17T01:34:02.108Z,91.61
2022-09-17T01:35:01.740Z,91.91
2022-09-17T01:36:01.823Z,92.22
2022-09-17T01:37:02.339Z,91.91
2022-09-17T01:38:02.167Z,92.36
2022-09-17T01:39:02.048Z,92.42
2022-09-17T01:40:02.736Z,92.42
2022-09-17T01:41:02.433Z,92.32
2022-09-17T01:42:01.932Z,92.52
2022-09-17T01:43:01.799Z,92.11
2022-09-17T01:44:02.145Z,91.61
2022-09-17T01:45:01.859Z,92.01
2022-09-17T01:46:02.069Z,92.22
2022-09-17T01:47:02.384Z,92.32
2022-09-17T01:48:02.128Z,92.42
2022-09-17T01:49:02.134Z,92.42
2022-09-17T01:50:02.649Z,92.63
2022-09-17T01:51:02.485Z,92.83
2022-09-17T01:52:03.235Z,92.52
2022-09-17T01:53:03.041Z,92.52
2022-09-17T01:54:02.920Z,92.93
2022-09-17T01:55:03.144Z,93.33
2022-09-17T01:56:02.499Z,93.24
2022-09-17T01:57:02.015Z,92.93
2022-09-17T01:58:02.380Z,92.93
2022-09-17T01:59:02.138Z,92.83
2022-09-17T02:00:01.957Z,92.93
2022-09-17T02:01:02.039Z,92.83
2022-09-17T02:02:02.353Z,92.63
2022-09-17T02:03:01.960Z,92.52
2022-09-17T02:04:02.528Z,92.93
2022-09-17T02:05:02.220Z,92.63
2022-09-17T02:06:01.935Z,92.83
2022-09-17T02:07:02.530Z,92.63
2022-09-17T02:08:02.358Z,92.68
2022-09-17T02:09:02.265Z,92.48
2022-09-17T02:10:02.595Z,92.42
2022-09-17T02:11:02.167Z,92.63
2022-09-17T02:12:02.690Z,92.72
2022-09-17T02:13:02.750Z,93.24
2022-09-17T02:14:02.577Z,93.74
2022-09-17T02:15:02.502Z,94.30
2022-09-17T02:16:03.018Z,94.46
2022-09-17T02:17:02.180Z,94.56
2022-09-17T02:18:01.988Z,94.97
2022-09-17T02:19:02.615Z,94.76
2022-09-17T02:20:02.281Z,95.21
2022-09-17T02:21:02.189Z,95.07
2022-09-17T02:22:02.908Z,94.97
2022-09-17T02:23:02.943Z,95.07
2022-09-17T02:24:02.536Z,95.37
2022-09-17T02:25:02.311Z,95.17
2022-09-17T02:26:02.622Z,94.97
2022-09-17T02:27:02.890Z,94.87
2022-09-17T02:28:03.541Z,94.66
2022-09-17T02:29:02.903Z,94.66
2022-09-17T02:30:02.845Z,94.56
2022-09-17T02:31:03.255Z,94.21
2022-09-17T02:32:03.178Z,94.42
2022-09-17T02:33:03.023Z,94.31
2022-09-17T02:34:03.282Z,94.21
2022-09-17T02:35:03.282Z,94.11
2022-09-17T02:36:03.337Z,94.21
2022-09-17T02:37:02.227Z,94.42
2022-09-17T02:38:02.496Z,94.97
2022-09-17T02:39:02.547Z,94.82
2022-09-17T02:40:02.955Z,94.82
2022-09-17T02:41:02.691Z,94.52
2022-09-17T02:42:03.303Z,94.42
2022-09-17T02:43:03.247Z,94.31
2022-09-17T02:44:03.145Z,94.21
2022-09-17T02:45:03.029Z,94.01
2022-09-17T02:46:02.902Z,94.31
2022-09-17T02:47:02.012Z,94.21
2022-09-17T02:48:02.363Z,94.21
2022-09-17T02:49:02.547Z,94.21
2022-09-17T02:50:02.438Z,94.42
2022-09-17T02:51:01.963Z,94.62
2022-09-17T02:52:02.456Z,94.42
2022-09-17T02:53:02.286Z,94.42
2022-09-17T02:54:02.283Z,94.72
2022-09-17T02:55:02.163Z,94.42
2022-09-17T02:56:02.529Z,94.31
2022-09-17T02:57:02.823Z,94.31
2022-09-17T02:58:02.977Z,94.31
2022-09-17T02:59:02.793Z,94.62
2022-09-17T03:00:02.750Z,94.62
2022-09-17T03:01:03.168Z,94.26
2022-09-17T03:02:02.701Z,94.46
2022-09-17T03:03:02.349Z,94.66
2022-09-17T03:04:02.185Z,94.76
2022-09-17T03:05:02.123Z,94.46
2022-09-17T03:06:02.332Z,94.56
2022-09-17T03:07:01.997Z,94.56
2022-09-17T03:08:01.830Z,94.46
2022-09-17T03:09:02.186Z,94.46
2022-09-17T03:10:01.842Z,94.56
2022-09-17T03:11:01.861Z,94.66
2022-09-17T03:12:02.836Z,95.01
2022-09-17T03:13:02.067Z,94.91
2022-09-17T03:14:02.106Z,95.21
2022-09-17T03:15:02.551Z,95.73
2022-09-17T03:16:02.758Z,95.62
2022-09-17T03:17:02.274Z,95.17
2022-09-17T03:18:02.578Z,94.91
2022-09-17T03:19:02.452Z,95.42
2022-09-17T03:20:02.337Z,95.21
2022-09-17T03:21:02.127Z,95.62
2022-09-17T03:22:02.283Z,95.62
2022-09-17T03:23:01.806Z,95.28
2022-09-17T03:24:02.127Z,95.28
2022-09-17T03:25:02.058Z,94.97
2022-09-17T03:26:02.333Z,94.97
2022-09-17T03:27:01.991Z,94.46
2022-09-17T03:28:02.271Z,94.76
2022-09-17T03:29:02.464Z,95.07
2022-09-17T03:30:02.142Z,95.17
2022-09-17T03:31:02.096Z,95.37
2022-09-17T03:32:02.054Z,94.97
2022-09-17T03:33:02.047Z,94.56
2022-09-17T03:34:02.576Z,94.66
2022-09-17T03:35:02.189Z,94.31
2022-09-17T03:36:02.571Z,94.42
2022-09-17T03:37:02.997Z,94.42
2022-09-17T03:38:02.518Z,94.62
2022-09-17T03:39:02.988Z,94.21
2022-09-17T03:40:02.780Z,94.21
2022-09-17T03:41:03.076Z,94.72
2022-09-17T03:42:02.212Z,94.52
2022-09-17T03:43:02.057Z,94.21
2022-09-17T03:44:01.829Z,94.21
2022-09-17T03:45:01.783Z,94.31
2022-09-17T03:46:01.712Z,94.52
2022-09-17T03:47:02.119Z,94.21
2022-09-17T03:48:02.034Z,93.90
2022-09-17T03:49:01.886Z,93.90
2022-09-17T03:50:02.030Z,93.90
2022-09-17T03:51:02.281Z,94.11
2022-09-17T03:52:02.102Z,94.01
2022-09-17T03:53:02.723Z,93.60
2022-09-17T03:54:02.503Z,93.80
2022-09-17T03:55:02.399Z,94.11
2022-09-17T03:56:02.240Z,94.11
2022-09-17T03:57:01.949Z,94.01
2022-09-17T03:58:01.816Z,94.11
2022-09-17T03:59:01.735Z,94.21
2022-09-17T04:00:02.189Z,93.90
2022-09-17T04:01:02.330Z,93.90
2022-09-17T04:02:02.811Z,93.50
2022-09-17T04:03:02.710Z,93.70
2022-09-17T04:04:02.727Z,93.90
2022-09-17T04:05:02.797Z,94.31
2022-09-17T04:06:02.858Z,94.31
2022-09-17T04:07:02.719Z,94.52
2022-09-17T04:08:02.575Z,94.72
2022-09-17T04:09:02.631Z,94.52
2022-09-17T04:10:02.519Z,94.11
2022-09-17T04:11:02.363Z,94.42
2022-09-17T04:12:03.123Z,94.42
2022-09-17T04:13:03.286Z,94.42
2022-09-17T04:14:03.177Z,94.21
2022-09-17T04:15:02.976Z,94.21
2022-09-17T04:16:03.221Z,95.03
2022-09-17T04:17:02.575Z,94.62
2022-09-17T04:18:02.231Z,94.72
2022-09-17T04:19:02.500Z,94.72
2022-09-17T04:20:02.745Z,94.62
2022-09-17T04:21:02.646Z,94.42
2022-09-17T04:22:03.396Z,94.66
2022-09-17T04:23:02.809Z,94.66
2022-09-17T04:24:02.879Z,94.66
2022-09-17T04:25:03.125Z,94.66
2022-09-17T04:26:03.411Z,94.66
2022-09-17T04:27:02.939Z,95.28
2022-09-17T04:28:03.463Z,95.28
2022-09-17T04:29:03.147Z,95.28
2022-09-17T04:30:03.245Z,95.28
2022-09-17T04:31:03.126Z,95.28
2022-09-17T04:32:03.534Z,95.28
2022-09-17T04:33:03.136Z,95.37
2022-09-17T04:34:03.514Z,95.48
2022-09-17T04:35:03.023Z,95.17
2022-09-17T04:36:03.361Z,95.07
2022-09-17T04:37:02.656Z,94.87
2022-09-17T04:38:02.633Z,95.17
2022-09-17T04:39:02.913Z,94.97
2022-09-17T04:40:05.750Z,95.28
2022-09-17T04:41:02.691Z,95.07
2022-09-17T04:42:02.837Z,94.66
2022-09-17T04:43:03.164Z,94.66
2022-09-17T04:44:03.193Z,94.91
2022-09-17T04:45:02.927Z,95.52
2022-09-17T04:46:02.652Z,96.14
2022-09-17T04:47:02.359Z,95.17
2022-09-17T04:48:02.445Z,95.21
2022-09-17T04:49:02.432Z,95.28
2022-09-17T04:50:02.303Z,94.87
2022-09-17T04:51:01.993Z,94.66
2022-09-17T04:52:02.521Z,94.46
2022-09-17T04:53:02.719Z,94.35
2022-09-17T04:54:02.306Z,94.15
2022-09-17T04:55:02.831Z,94.35
2022-09-17T04:56:02.670Z,94.15
2022-09-17T04:57:02.717Z,94.46
2022-09-17T04:58:02.838Z,94.50
2022-09-17T04:59:02.422Z,94.60
2022-09-17T05:00:02.832Z,94.60
2022-09-17T05:01:02.582Z,94.81
2022-09-17T05:02:03.078Z,94.60
2022-09-17T05:03:03.214Z,94.60
2022-09-17T05:04:03.109Z,94.81
2022-09-17T05:05:03.473Z,95.01
2022-09-17T05:06:03.550Z,95.12
2022-09-17T05:07:02.576Z,95.12
2022-09-17T05:08:02.588Z,95.21
2022-09-17T05:09:02.132Z,95.32
2022-09-17T05:10:02.673Z,95.12
2022-09-17T05:11:02.624Z,95.52
2022-09-17T05:12:03.362Z,95.21
2022-09-17T05:13:02.823Z,95.12
2022-09-17T05:14:02.803Z,95.21
2022-09-17T05:15:02.818Z,95.52
2022-09-17T05:16:03.371Z,95.73
2022-09-17T05:17:03.468Z,95.73
2022-09-17T05:18:03.429Z,95.52
2022-09-17T05:19:03.036Z,95.32
2022-09-17T05:20:03.390Z,95.21
2022-09-17T05:21:03.165Z,95.42
2022-09-17T05:22:02.339Z,95.52
2022-09-17T05:23:02.785Z,95.42
2022-09-17T05:24:02.563Z,95.73
2022-09-17T05:25:02.072Z,95.83
2022-09-17T05:26:02.159Z,95.83
2022-09-17T05:27:02.885Z,95.93
2022-09-17T05:28:02.964Z,96.08
2022-09-17T05:29:02.596Z,96.28
2022-09-17T05:30:02.615Z,96.18
2022-09-17T05:31:02.460Z,95.97
2022-09-17T05:32:02.940Z,96.08
2022-09-17T05:33:03.057Z,96.59
2022-09-17T05:34:03.028Z,96.48
2022-09-17T05:35:05.556Z,96.79
2022-09-17T05:36:02.798Z,96.59
2022-09-17T05:37:03.034Z,96.69
2022-09-17T05:38:03.102Z,96.89
2022-09-17T05:39:02.748Z,96.69
2022-09-17T05:40:03.020Z,96.69
2022-09-17T05:41:03.125Z,96.38
2022-09-17T05:42:03.128Z,96.59
2022-09-17T05:43:03.516Z,96.69
2022-09-17T05:44:03.667Z,96.69
2022-09-17T05:45:03.209Z,97.00
2022-09-17T05:46:03.385Z,96.59
2022-09-17T05:47:02.891Z,96.23
2022-09-17T05:48:02.585Z,96.14
2022-09-17T05:49:02.879Z,96.08
2022-09-17T05:50:02.738Z,96.08
2022-09-17T05:51:02.528Z,96.08
2022-09-17T05:52:03.141Z,96.08
2022-09-17T05:53:02.752Z,96.34
2022-09-17T05:54:02.866Z,96.03
2022-09-17T05:55:02.829Z,95.93
2022-09-17T05:56:03.206Z,95.62
2022-09-17T05:57:02.992Z,96.03
2022-09-17T05:58:03.010Z,95.62
2022-09-17T05:59:02.791Z,95.62
2022-09-17T06:00:02.422Z,95.52
2022-09-17T06:01:02.620Z,95.28
2022-09-17T06:02:02.929Z,94.87
2022-09-17T06:03:02.922Z,94.87
2022-09-17T06:04:03.029Z,94.87
2022-09-17T06:05:03.030Z,94.56
2022-09-17T06:06:02.813Z,94.46
2022-09-17T06:07:03.242Z,94.46
2022-09-17T06:08:03.569Z,94.26
2022-09-17T06:09:03.129Z,94.35
2022-09-17T06:10:03.207Z,94.56
2022-09-17T06:11:03.114Z,94.66
2022-09-17T06:12:02.816Z,94.46
2022-09-17T06:13:02.706Z,94.21
2022-09-17T06:14:02.539Z,94.01
2022-09-17T06:15:02.602Z,94.01
2022-09-17T06:16:02.424Z,93.80
2022-09-17T06:17:03.255Z,94.31
2022-09-17T06:18:02.683Z,93.70
2022-09-17T06:19:03.191Z,93.60
2022-09-17T06:20:03.206Z,93.35
2022-09-17T06:21:03.201Z,93.25
2022-09-17T06:22:03.071Z,93.35
2022-09-17T06:23:03.412Z,93.55
2022-09-17T06:24:03.595Z,93.35
2022-09-17T06:25:03.387Z,93.66
2022-09-17T06:26:03.383Z,93.55
2022-09-17T06:27:02.451Z,93.35
2022-09-17T06:28:02.778Z,93.45
2022-09-17T06:29:02.417Z,93.25
2022-09-17T06:30:02.312Z,93.05
2022-09-17T06:31:02.409Z,93.55
2022-09-17T06:32:02.422Z,93.45
2022-09-17T06:33:02.829Z,93.35
2022-09-17T06:34:02.862Z,93.35
2022-09-17T06:35:02.478Z,93.10
2022-09-17T06:36:03.044Z,93.10
2022-09-17T06:37:03.354Z,93.10
2022-09-17T06:38:03.351Z,93.01
2022-09-17T06:39:03.645Z,93.01
2022-09-17T06:40:03.570Z,92.90
2022-09-17T06:41:03.488Z,92.90
2022-09-17T06:42:02.654Z,92.90
2022-09-17T06:43:02.986Z,92.96
2022-09-17T06:44:02.886Z,93.26
2022-09-17T06:45:07.647Z,93.26
2022-09-17T06:46:02.644Z,93.06
2022-09-17T06:47:02.754Z,93.26
2022-09-17T06:48:03.076Z,93.06
2022-09-17T06:49:02.891Z,92.91
2022-09-17T06:50:03.150Z,92.91
2022-09-17T06:51:02.981Z,92.91
2022-09-17T06:52:03.012Z,92.61
2022-09-17T06:53:03.037Z,92.82
2022-09-17T06:54:03.122Z,92.91
2022-09-17T06:55:03.260Z,92.91
2022-09-17T06:56:06.476Z,92.82
2022-09-17T06:57:03.457Z,92.97
2022-09-17T06:58:03.367Z,92.67
2022-09-17T06:59:03.586Z,92.77
2022-09-17T07:00:03.651Z,92.57
2022-09-17T07:01:03.201Z,92.32
2022-09-17T07:02:03.364Z,92.52
2022-09-17T07:03:03.200Z,92.02
2022-09-17T07:04:03.197Z,91.91
2022-09-17T07:05:03.332Z,91.61
2022-09-17T07:06:03.524Z,92.32
2022-09-17T07:07:02.733Z,92.42
2022-09-17T07:08:02.594Z,91.41
2022-09-17T07:09:03.105Z,91.51
2022-09-17T07:10:03.239Z,91.51
2022-09-17T07:11:02.526Z,91.16
2022-09-17T07:12:03.630Z,90.14
2022-09-17T07:13:03.640Z,90.45
2022-09-17T07:14:03.235Z,90.75
2022-09-17T07:15:03.279Z,91.16
2022-09-17T07:16:03.476Z,90.45
2022-09-17T07:17:02.626Z,90.55
2022-09-17T07:18:03.026Z,90.66
2022-09-17T07:19:02.744Z,90.45
2022-09-17T07:20:03.079Z,90.14
2022-09-17T07:21:02.897Z,89.54
2022-09-17T07:22:03.264Z,89.03
2022-09-17T07:23:03.486Z,89.33
2022-09-17T07:24:03.328Z,89.54
2022-09-17T07:25:03.460Z,90.05
2022-09-17T07:26:03.461Z,90.90
2022-09-17T07:27:02.929Z,91.30
2022-09-17T07:28:02.806Z,91.61
2022-09-17T07:29:02.829Z,91.20
2022-09-17T07:30:02.939Z,91.55
2022-09-17T07:31:02.691Z,91.86
2022-09-17T07:32:03.614Z,92.16
2022-09-17T07:33:03.664Z,92.36
2022-09-17T07:34:03.570Z,92.77
2022-09-17T07:35:03.616Z,92.77
2022-09-17T07:36:03.906Z,92.47
2022-09-17T07:37:02.777Z,92.57
2022-09-17T07:38:02.864Z,92.51
2022-09-17T07:39:02.533Z,92.51
2022-09-17T07:40:03.057Z,92.91
2022-09-17T07:41:02.977Z,93.22
2022-09-17T07:42:03.322Z,93.32
2022-09-17T07:43:03.079Z,93.52
2022-09-17T07:44:03.011Z,93.32
2022-09-17T07:45:03.137Z,93.63
2022-09-17T07:46:03.137Z,93.83
2022-09-17T07:47:03.379Z,93.52
2022-09-17T07:48:02.955Z,92.41
2022-09-17T07:49:03.371Z,92.41
2022-09-17T07:50:02.948Z,92.96
2022-09-17T07:51:03.373Z,93.57
2022-09-17T07:52:03.809Z,93.37
2022-09-17T07:53:03.649Z,92.65
2022-09-17T07:54:03.593Z,92.35
2022-09-17T07:55:03.600Z,91.64
2022-09-17T07:56:04.649Z,91.94
2022-09-17T07:57:02.735Z,92.76
2022-09-17T07:58:02.859Z,91.53
2022-09-17T07:59:02.997Z,92.40
2022-09-17T08:00:03.036Z,91.78
2022-09-17T08:01:02.859Z,91.68
2022-09-17T08:02:02.845Z,92.70
2022-09-17T08:03:03.016Z,92.19
2022-09-17T08:04:02.583Z,91.48
2022-09-17T08:05:02.916Z,91.99
2022-09-17T08:06:02.292Z,91.78
2022-09-17T08:07:03.050Z,91.99
2022-09-17T08:08:02.841Z,91.58
2022-09-17T08:09:03.012Z,91.78
2022-09-17T08:10:02.695Z,91.78
2022-09-17T08:11:03.131Z,91.58
2022-09-17T08:12:02.331Z,91.17
2022-09-17T08:13:02.580Z,90.91
2022-09-17T08:14:02.369Z,92.19
2022-09-17T08:15:02.804Z,92.49
2022-09-17T08:16:02.690Z,93.10
2022-09-17T08:17:02.550Z,91.07
2022-09-17T08:18:02.595Z,91.48
2022-09-17T08:19:02.536Z,92.29
2022-09-17T08:20:02.480Z,92.49
2022-09-17T08:21:03.042Z,90.77
2022-09-17T08:22:03.145Z,91.38
2022-09-17T08:23:02.978Z,90.97
2022-09-17T08:24:02.899Z,91.38
2022-09-17T08:25:02.973Z,91.38
2022-09-17T08:26:02.888Z,92.40
2022-09-17T08:27:02.801Z,92.35
2022-09-17T08:28:02.560Z,92.55
2022-09-17T08:29:02.452Z,93.16
2022-09-17T08:30:02.444Z,93.77
2022-09-17T08:31:02.738Z,93.32
2022-09-17T08:32:02.597Z,93.32
2022-09-17T08:33:02.389Z,92.41
2022-09-17T08:34:02.440Z,92.16
2022-09-17T08:35:02.178Z,91.05
2022-09-17T08:36:02.106Z,92.47
2022-09-17T08:37:02.800Z,89.92
2022-09-17T08:38:02.878Z,89.83
2022-09-17T08:39:02.506Z,90.33
2022-09-17T08:40:02.790Z,90.33
2022-09-17T08:41:02.338Z,90.59
2022-09-17T08:42:02.882Z,88.71
2022-09-17T08:43:03.037Z,88.97
2022-09-17T08:44:02.973Z,89.78
2022-09-17T08:45:03.033Z,88.26
2022-09-17T08:46:03.064Z,88.56
2022-09-17T08:47:02.819Z,87.34
2022-09-17T08:48:02.474Z,87.24
2022-09-17T08:49:02.560Z,88.36
2022-09-17T08:50:02.869Z,89.03
2022-09-17T08:51:06.621Z,87.20
2022-09-17T08:52:02.620Z,87.45
2022-09-17T08:53:02.821Z,87.51
2022-09-17T08:54:02.953Z,87.81
2022-09-17T08:55:02.551Z,87.40
2022-09-17T08:56:02.622Z,86.90
2022-09-17T08:57:02.138Z,86.49
2022-09-17T08:58:02.497Z,88.01
2022-09-17T08:59:02.472Z,87.26
2022-09-17T09:00:02.254Z,88.48
2022-09-17T09:01:02.392Z,85.94
2022-09-17T09:02:02.540Z,86.05
2022-09-17T09:03:02.751Z,86.15
2022-09-17T09:04:03.319Z,85.90
2022-09-17T09:05:02.394Z,85.50
2022-09-17T09:06:03.779Z,85.70
2022-09-17T09:07:02.606Z,84.58
2022-09-17T09:08:02.711Z,85.56
2022-09-17T09:09:02.665Z,83.12
2022-09-17T09:10:02.736Z,84.44
2022-09-17T09:11:03.082Z,83.53
2022-09-17T09:12:03.187Z,84.44
2022-09-17T09:13:02.875Z,83.33
2022-09-17T09:14:03.202Z,84.14
2022-09-17T09:15:02.609Z,84.00
2022-09-17T09:16:02.749Z,82.89
2022-09-17T09:17:03.099Z,84.30
2022-09-17T09:18:03.132Z,83.80
2022-09-17T09:19:03.555Z,82.28
2022-09-17T09:20:03.484Z,81.81
2022-09-17T09:21:02.886Z,82.31
2022-09-17T09:22:02.829Z,82.52
2022-09-17T09:23:02.421Z,83.63
2022-09-17T09:24:02.384Z,83.53
2022-09-17T09:25:02.461Z,81.85
2022-09-17T09:26:02.389Z,83.67
2022-09-17T09:27:02.923Z,83.87
2022-09-17T09:28:03.242Z,83.77
2022-09-17T09:29:03.255Z,84.38
2022-09-17T09:30:02.881Z,83.47
2022-09-17T09:31:03.474Z,81.95
2022-09-17T09:32:02.638Z,83.87
2022-09-17T09:33:02.592Z,85.09
2022-09-17T09:34:02.933Z,85.60
2022-09-17T09:35:02.953Z,83.37
2022-09-17T09:36:02.989Z,83.26
2022-09-17T09:37:02.799Z,82.76
2022-09-17T09:38:02.707Z,80.93
2022-09-17T09:39:03.280Z,82.56
2022-09-17T09:40:03.332Z,82.92
2022-09-17T09:41:03.116Z,83.03
2022-09-17T09:42:03.449Z,82.21
2022-09-17T09:43:03.542Z,80.29
2022-09-17T09:44:04.751Z,79.88
2022-09-17T09:45:05.401Z,81.91
2022-09-17T09:46:03.709Z,79.58
2022-09-17T09:47:02.450Z,82.28
2022-09-17T09:48:02.330Z,81.46
2022-09-17T09:49:02.301Z,80.15
2022-09-17T09:50:02.394Z,81.73
2022-09-17T09:51:06.539Z,81.83
2022-09-17T09:52:03.033Z,79.91
2022-09-17T09:53:03.416Z,77.37
2022-09-17T09:54:02.801Z,79.06
2022-09-17T09:55:03.353Z,77.84
2022-09-17T09:56:03.313Z,79.36
2022-09-17T09:57:02.721Z,78.25
2022-09-17T09:58:02.377Z,78.72
2022-09-17T09:59:02.306Z,75.58
2022-09-17T10:00:02.313Z,75.79
2022-09-17T10:01:02.433Z,76.19
2022-09-17T10:02:02.614Z,74.77
2022-09-17T10:03:02.793Z,75.18
2022-09-17T10:04:02.470Z,74.77
2022-09-17T10:05:02.680Z,75.58
2022-09-17T10:06:02.912Z,76.05
2022-09-17T10:07:02.537Z,73.43
2022-09-17T10:08:02.607Z,74.03
2022-09-17T10:09:02.787Z,74.33
2022-09-17T10:10:02.841Z,76.15
2022-09-17T10:11:02.682Z,73.72
2022-09-17T10:12:03.014Z,74.13
2022-09-17T10:13:03.425Z,74.23
2022-09-17T10:14:06.724Z,75.14
2022-09-17T10:15:03.302Z,74.13
2022-09-17T10:16:03.482Z,74.94
2022-09-17T10:17:02.449Z,76.56
2022-09-17T10:18:02.416Z,75.14
2022-09-17T10:19:02.372Z,73.83
2022-09-17T10:20:02.378Z,76.35
2022-09-17T10:21:02.655Z,76.19
2022-09-17T10:22:02.333Z,76.32
2022-09-17T10:23:02.858Z,78.45
2022-09-17T10:24:03.042Z,77.68
2022-09-17T10:25:02.911Z,79.10
2022-09-17T10:26:02.928Z,81.02
2022-09-17T10:27:02.915Z,82.34
2022-09-17T10:28:02.773Z,81.73
2022-09-17T10:29:02.834Z,81.93
2022-09-17T10:30:02.699Z,81.63
2022-09-17T10:31:07.849Z,82.03
2022-09-17T10:32:03.095Z,81.43
2022-09-17T10:33:02.998Z,80.82
2022-09-17T10:34:03.325Z,81.83
2022-09-17T10:35:03.324Z,82.75
2022-09-17T10:36:02.890Z,81.83
2022-09-17T10:37:03.254Z,82.24
2022-09-17T10:38:03.241Z,80.92
2022-09-17T10:39:03.222Z,81.83
2022-09-17T10:40:03.746Z,81.52
2022-09-17T10:41:03.270Z,80.38
2022-09-17T10:42:03.023Z,81.09
2022-09-17T10:43:02.374Z,78.28
2022-09-17T10:44:02.821Z,79.20
2022-09-17T10:45:02.772Z,79.71
2022-09-17T10:46:02.394Z,80.52
2022-09-17T10:47:03.342Z,78.39
2022-09-17T10:48:03.411Z,78.59
2022-09-17T10:49:03.414Z,79.20
2022-09-17T10:50:03.451Z,79.10
2022-09-17T10:51:03.629Z,80.72
2022-09-17T10:52:02.583Z,81.09
2022-09-17T10:53:02.547Z,79.16
2022-09-17T10:54:02.747Z,79.33
2022-09-17T10:55:02.882Z,78.62
2022-09-17T10:56:02.580Z,77.81
2022-09-17T10:57:03.121Z,77.20
2022-09-17T10:58:03.112Z,74.57
2022-09-17T10:59:03.273Z,74.87
2022-09-17T11:00:03.404Z,74.87
2022-09-17T11:01:03.344Z,75.48
2022-09-17T11:02:03.335Z,75.18
2022-09-17T11:03:03.370Z,76.97
2022-09-17T11:04:03.322Z,76.76
2022-09-17T11:05:03.245Z,76.12
2022-09-17T11:06:03.434Z,76.62
2022-09-17T11:07:03.009Z,77.84
2022-09-17T11:08:03.049Z,75.27
2022-09-17T11:09:03.124Z,73.05
2022-09-17T11:10:03.125Z,70.83
2022-09-17T11:11:03.145Z,72.64
2022-09-17T11:12:02.956Z,72.34
2022-09-17T11:13:02.862Z,71.40
2022-09-17T11:14:02.751Z,72.00
2022-09-17T11:15:02.602Z,71.30
2022-09-17T11:16:02.690Z,73.18
2022-09-17T11:17:03.117Z,71.26
2022-09-17T11:18:03.361Z,69.15
2022-09-17T11:19:03.151Z,70.22
2022-09-17T11:20:03.203Z,66.49
2022-09-17T11:21:03.351Z,68.41
2022-09-17T11:22:03.186Z,70.93
2022-09-17T11:23:02.773Z,70.12
2022-09-17T11:24:03.031Z,69.21
2022-09-17T11:25:03.199Z,70.22
2022-09-17T11:26:02.981Z,67.40
2022-09-17T11:27:03.351Z,67.70
2022-09-17T11:28:03.505Z,69.42
2022-09-17T11:29:03.470Z,70.02
2022-09-17T11:30:03.554Z,70.19
2022-09-17T11:31:03.570Z,71.30
2022-09-17T11:32:03.037Z,72.91
2022-09-17T11:33:03.046Z,73.62
2022-09-17T11:34:02.978Z,72.17
2022-09-17T11:35:03.002Z,72.78
2022-09-17T11:36:02.881Z,73.38
2022-09-17T11:37:03.343Z,73.18
2022-09-17T11:38:03.214Z,70.36
2022-09-17T11:39:02.873Z,70.66
2022-09-17T11:40:03.073Z,69.48
2022-09-17T11:41:03.143Z,70.59
2022-09-17T11:42:03.680Z,69.59
2022-09-17T11:43:03.594Z,70.49
2022-09-17T11:44:03.852Z,67.10
2022-09-17T11:45:03.496Z,66.79
2022-09-17T11:46:03.798Z,67.19
2022-09-17T11:47:03.281Z,69.35
2022-09-17T11:48:03.408Z,68.84
2022-09-17T11:49:02.807Z,69.75
2022-09-17T11:50:03.085Z,69.78
2022-09-17T11:51:03.352Z,69.98
2022-09-17T11:52:03.026Z,69.58
2022-09-17T11:53:02.890Z,71.13
2022-09-17T11:54:02.813Z,72.91
2022-09-17T11:55:02.775Z,71.91
2022-09-17T11:56:02.655Z,72.71
2022-09-17T11:57:06.395Z,71.91
2022-09-17T11:58:02.817Z,70.49
2022-09-17T11:59:03.104Z,69.58
2022-09-17T12:00:03.314Z,68.80
2022-09-17T12:01:02.985Z,69.51
2022-09-17T12:02:03.634Z,70.73
2022-09-17T12:03:03.133Z,70.36
2022-09-17T12:04:03.444Z,70.05
2022-09-17T12:05:03.586Z,71.47
2022-09-17T12:06:03.368Z,70.05
2022-09-17T12:07:03.133Z,70.05
2022-09-17T12:08:02.930Z,71.77
2022-09-17T12:09:03.187Z,71.03
2022-09-17T12:10:02.565Z,71.94
2022-09-17T12:11:03.184Z,70.32
2022-09-17T12:12:03.181Z,71.94
2022-09-17T12:13:03.004Z,69.08
2022-09-17T12:14:02.733Z,66.89
2022-09-17T12:15:02.849Z,65.57
2022-09-17T12:16:03.383Z,66.69
2022-09-17T12:17:03.661Z,67.60
2022-09-17T12:18:30.493Z,66.72
2022-09-17T12:19:03.558Z,67.12
2022-09-17T12:20:03.085Z,66.72
2022-09-17T12:21:03.251Z,66.55
2022-09-17T12:22:02.439Z,67.18
2022-09-17T12:23:03.136Z,69.24
2022-09-17T12:24:02.757Z,71.09
2022-09-17T12:25:03.026Z,73.36
2022-09-17T12:26:03.106Z,75.99
2022-09-17T12:27:02.975Z,77.75
2022-09-17T12:28:03.506Z,79.82
2022-09-17T12:29:03.564Z,80.32
2022-09-17T12:30:03.437Z,81.48
2022-09-17T12:31:03.334Z,82.59
2022-09-17T12:32:03.307Z,83.10
2022-09-17T12:33:03.726Z,84.05
2022-09-17T12:34:03.739Z,84.46
2022-09-17T12:35:03.795Z,84.66
2022-09-17T12:36:05.319Z,85.58
2022-09-17T12:37:03.691Z,85.27
2022-09-17T12:38:02.707Z,85.07
2022-09-17T12:39:03.568Z,86.39
2022-09-17T12:40:03.067Z,86.25
2022-09-17T12:41:03.172Z,86.65
2022-09-17T12:42:03.176Z,85.84
2022-09-17T12:43:03.769Z,86.25
2022-09-17T12:44:03.988Z,85.19
2022-09-17T12:45:04.033Z,85.90
2022-09-17T12:46:03.833Z,85.60
2022-09-17T12:47:03.736Z,86.21
2022-09-17T12:48:03.052Z,86.16
2022-09-17T12:49:03.307Z,86.98
2022-09-17T12:50:03.204Z,87.04
2022-09-17T12:51:03.234Z,85.72
2022-09-17T12:52:02.906Z,84.70